Time;durP1;ratioP1;P1;durP2;ratioP2;P2;SDS_P1;SDS_P2;PMS_P1;PMS_P2;Temp;Humidity;BMP_temperature;BMP_pressure;BME280_temperature;BME280_humidity;BME280_pressure;Samples;Min_cycle;Max_cycle;Signal;HPM_P1;HPM_P2
2023/09/26 00:01:08;;;;;;;3.20;2.13;;;;;;;13.26;65.20;101000.72;10427013;28;20052;-56
2023/09/26 00:06:20;;;;;;;6.82;2.35;;;;;;;13.23;65.22;101001.09;10426321;28;20625;-57
2023/09/26 00:11:22;;;;;;;5.50;2.15;;;;;;;13.22;65.22;100996.72;10424827;28;20124;-58
2023/09/26 00:16:24;;;;;;;4.25;2.40;;;;;;;13.20;65.35;100995.22;10429445;28;20136;-58
2023/09/26 00:21:25;;;;;;;3.75;1.95;;;;;;;13.17;65.10;100993.72;10426186;28;20057;-58
2023/09/26 00:26:27;;;;;;;3.25;2.00;;;;;;;13.12;64.92;100993.41;10425716;28;20148;-58
2023/09/26 00:31:28;;;;;;;3.30;2.10;;;;;;;13.09;65.40;100999.13;10423472;28;20053;-58
2023/09/26 00:36:30;;;;;;;7.07;2.58;;;;;;;13.04;65.14;101013.16;10423082;28;20053;-58
2023/09/26 00:41:33;;;;;;;5.38;2.15;;;;;;;12.99;65.08;101001.22;10424350;28;20059;-57
2023/09/26 00:46:35;;;;;;;3.78;2.33;;;;;;;12.96;65.20;101001.59;10428344;28;20060;-57
2023/09/26 00:51:37;;;;;;;3.05;2.10;;;;;;;12.94;65.39;100998.22;10422673;28;20153;-58
2023/09/26 00:56:39;;;;;;;2.20;1.83;;;;;;;12.92;65.66;100994.84;10427519;28;20396;-58
2023/09/26 01:01:42;;;;;;;4.72;2.58;;;;;;;12.87;65.60;100998.06;10426601;28;20052;-58
2023/09/26 01:06:44;;;;;;;5.07;2.33;;;;;;;12.86;65.42;100996.41;10422959;28;20428;-58
2023/09/26 01:11:46;;;;;;;3.33;2.60;;;;;;;12.78;65.89;101002.66;10423031;28;20073;-59
2023/09/26 01:16:54;;;;;;;3.47;2.28;;;;;;;12.72;65.97;101002.50;10429467;28;20060;-58
2023/09/26 01:21:56;;;;;;;6.05;2.70;;;;;;;12.56;66.74;100993.47;10426116;28;20121;-57
2023/09/26 01:26:57;;;;;;;4.45;2.60;;;;;;;12.50;66.86;100989.59;10430154;28;20045;-57
2023/09/26 01:31:59;;;;;;;3.95;2.80;;;;;;;12.57;66.41;100992.44;10427909;28;20040;-56
2023/09/26 01:37:00;;;;;;;3.35;2.38;;;;;;;12.59;66.69;100979.63;10422995;28;20045;-56
2023/09/26 01:42:02;;;;;;;6.50;2.50;;;;;;;12.60;66.69;100981.31;10425966;28;20099;-57
2023/09/26 01:47:04;;;;;;;8.55;3.55;;;;;;;12.58;66.68;100982.47;10422671;28;20068;-57
2023/09/26 01:52:05;;;;;;;4.03;2.90;;;;;;;12.61;66.29;100982.16;10406861;28;20452;-57
2023/09/26 01:57:07;;;;;;;7.05;2.92;;;;;;;12.52;66.94;100981.34;10424198;28;20134;-58
2023/09/26 02:02:08;;;;;;;7.03;3.20;;;;;;;12.48;66.98;100977.31;10417852;28;20046;-57
2023/09/26 02:07:10;;;;;;;4.75;3.25;;;;;;;12.44;66.75;100976.81;10416396;28;20409;-57
2023/09/26 02:12:11;;;;;;;4.03;2.97;;;;;;;12.46;66.82;100976.63;10424520;28;20061;-56
2023/09/26 02:17:12;;;;;;;5.20;2.75;;;;;;;12.46;66.96;100980.19;10423206;28;20381;-58
2023/09/26 02:22:14;;;;;;;5.15;3.08;;;;;;;12.45;66.77;100977.66;10419655;28;20135;-56
2023/09/26 02:27:15;;;;;;;5.43;3.20;;;;;;;12.43;66.78;100976.97;10425312;28;20049;-58
2023/09/26 02:32:17;;;;;;;7.03;3.75;;;;;;;12.42;66.91;100978.84;10422677;28;20060;-56
2023/09/26 02:37:18;;;;;;;10.90;6.15;;;;;;;12.39;66.91;100981.03;10412813;28;20084;-59
2023/09/26 02:42:20;;;;;;;9.13;5.53;;;;;;;12.36;67.06;100959.78;10424317;28;20048;-56
2023/09/26 02:47:21;;;;;;;5.25;3.88;;;;;;;12.36;67.33;100954.41;10423950;28;20055;-56
2023/09/26 02:52:25;;;;;;;7.63;3.78;;;;;;;12.32;67.07;100948.50;10416652;28;20049;-56
2023/09/26 02:57:26;;;;;;;6.28;3.55;;;;;;;12.24;67.23;100944.00;10418616;28;20049;-61
2023/09/26 03:02:28;;;;;;;3.60;2.92;;;;;;;12.22;67.62;100942.47;10423774;28;20056;-55
2023/09/26 03:07:29;;;;;;;4.53;3.22;;;;;;;12.20;67.32;100945.34;10418447;28;20053;-56
2023/09/26 03:12:31;;;;;;;6.05;3.30;;;;;;;12.17;67.68;100947.56;10425423;28;20056;-56
2023/09/26 03:17:32;;;;;;;3.55;2.58;;;;;;;12.16;67.76;100954.78;10418445;28;20508;-56
2023/09/26 03:22:34;;;;;;;6.20;3.15;;;;;;;12.12;67.64;100948.06;10418172;28;20057;-58
2023/09/26 03:27:35;;;;;;;4.93;4.00;;;;;;;12.10;67.86;100944.69;10423216;28;20059;-57
2023/09/26 03:32:36;;;;;;;4.70;2.95;;;;;;;12.09;67.67;100943.03;10420250;28;20052;-55
2023/09/26 03:37:39;;;;;;;9.38;3.15;;;;;;;12.04;67.75;100938.13;10420125;28;20060;-57
2023/09/26 03:42:40;;;;;;;6.82;3.63;;;;;;;12.02;67.83;100942.84;10421776;28;20139;-58
2023/09/26 03:47:42;;;;;;;5.70;2.90;;;;;;;12.00;67.77;100949.44;10417074;28;20547;-58
2023/09/26 03:52:43;;;;;;;4.93;4.13;;;;;;;11.89;67.74;100951.47;10420368;28;20049;-58
2023/09/26 03:57:45;;;;;;;5.88;3.50;;;;;;;11.88;67.79;100951.59;10426921;28;20068;-58
2023/09/26 04:02:47;;;;;;;4.53;3.45;;;;;;;11.86;68.06;100943.69;10428082;28;20463;-58
2023/09/26 04:07:48;;;;;;;4.63;3.72;;;;;;;11.87;67.42;100933.78;10410702;28;20048;-58
2023/09/26 04:12:50;;;;;;;8.18;4.65;;;;;;;11.87;67.72;100931.91;10427458;28;20043;-58
2023/09/26 04:17:51;;;;;;;6.82;4.75;;;;;;;11.85;67.85;100927.72;10426196;28;20469;-58
2023/09/26 04:22:53;;;;;;;7.00;4.57;;;;;;;11.83;68.18;100932.44;10426160;28;20049;-58
2023/09/26 04:27:54;;;;;;;7.30;4.32;;;;;;;11.75;68.26;100938.66;10428565;28;20049;-58
2023/09/26 04:32:56;;;;;;;7.68;4.57;;;;;;;11.72;68.41;100930.91;10423758;28;20042;-60
2023/09/26 04:37:58;;;;;;;9.88;4.70;;;;;;;11.81;67.73;100929.03;10422162;28;20570;-61
2023/09/26 04:43:03;;;;;;;8.25;5.35;;;;;;;11.85;67.80;100935.78;10424986;28;20055;-61
2023/09/26 04:48:05;;;;;;;10.32;4.60;;;;;;;11.86;68.04;100943.69;10425974;28;20077;-60
2023/09/26 04:53:06;;;;;;;7.47;4.72;;;;;;;11.84;68.13;100929.53;10420657;28;20056;-59
2023/09/26 04:58:08;;;;;;;10.32;6.72;;;;;;;11.75;68.50;100933.28;10423237;28;20041;-60
2023/09/26 05:03:10;;;;;;;7.18;5.32;;;;;;;11.69;68.27;100940.16;10409956;28;20049;-60
2023/09/26 05:08:12;;;;;;;7.28;5.15;;;;;;;11.63;68.97;100939.97;10421472;28;20538;-58
2023/09/26 05:13:14;;;;;;;10.98;5.03;;;;;;;11.67;68.53;100934.13;10420896;28;20045;-57
2023/09/26 05:18:16;;;;;;;6.20;4.47;;;;;;;11.68;68.44;100937.63;10422619;28;20045;-58
2023/09/26 05:23:17;;;;;;;9.02;5.03;;;;;;;11.69;68.44;100942.88;10424683;28;20049;-57
2023/09/26 05:28:19;;;;;;;8.38;5.78;;;;;;;11.70;68.39;100946.38;10427952;28;20551;-57
2023/09/26 05:33:20;;;;;;;6.85;4.65;;;;;;;11.73;68.47;100945.19;10412465;28;20550;-58
2023/09/26 05:38:22;;;;;;;5.20;3.88;;;;;;;11.75;68.68;100948.56;10426353;28;20053;-58
2023/09/26 05:43:23;;;;;;;7.20;4.35;;;;;;;11.82;68.18;100949.59;10418163;28;20049;-59
2023/09/26 05:48:25;;;;;;;9.85;4.75;;;;;;;11.87;68.49;100949.94;10421844;28;20049;-60
2023/09/26 05:53:27;;;;;;;6.53;4.68;;;;;;;11.92;68.20;100952.97;10419206;28;20581;-59
2023/09/26 05:58:28;;;;;;;7.30;4.72;;;;;;;11.97;68.68;100952.47;10423438;28;20411;-61
2023/09/26 06:03:30;;;;;;;6.50;4.72;;;;;;;12.00;68.56;100955.66;10424091;28;20054;-60
2023/09/26 06:08:33;;;;;;;6.57;4.68;;;;;;;12.05;68.51;100955.16;10433678;28;20045;-60
2023/09/26 06:13:35;;;;;;;7.38;4.47;;;;;;;12.13;68.23;100955.16;10420649;28;20124;-60
2023/09/26 06:18:36;;;;;;;10.73;5.05;;;;;;;12.17;68.36;100964.56;10425885;28;20055;-59
2023/09/26 06:23:38;;;;;;;7.28;5.18;;;;;;;12.19;68.56;100964.41;10428582;28;20515;-60
2023/09/26 06:28:40;;;;;;;7.30;4.30;;;;;;;12.26;69.11;100965.38;10421235;28;20633;-59
2023/09/26 06:33:41;;;;;;;7.25;4.90;;;;;;;12.34;69.17;100967.22;10425370;28;20034;-59
2023/09/26 06:38:42;;;;;;;7.65;4.85;;;;;;;12.45;69.20;100958.78;10431834;28;20049;-60
2023/09/26 06:43:44;;;;;;;7.00;4.10;;;;;;;12.58;68.97;100959.06;10422464;28;20476;-57
2023/09/26 06:48:46;;;;;;;6.57;4.97;;;;;;;12.67;69.30;100958.00;10415060;28;20045;-59
2023/09/26 06:53:47;;;;;;;7.18;4.80;;;;;;;12.84;69.13;100957.94;10420396;28;20080;-57
2023/09/26 06:58:49;;;;;;;10.13;4.93;;;;;;;12.97;69.07;100960.06;10420469;28;20104;-58
2023/09/26 07:03:51;;;;;;;6.45;4.30;;;;;;;13.14;68.96;100966.22;10421197;28;20063;-58
2023/09/26 07:08:55;;;;;;;5.95;5.13;;;;;;;13.28;69.05;100960.06;10417234;28;20467;-58
2023/09/26 07:13:56;;;;;;;8.73;4.57;;;;;;;13.51;68.81;100959.25;10418507;28;20377;-60
2023/09/26 07:18:58;;;;;;;6.72;4.70;;;;;;;13.67;68.77;100953.75;10404274;28;20121;-60
2023/09/26 07:24:00;;;;;;;6.43;4.40;;;;;;;13.86;68.54;100953.25;10425513;28;20498;-59
2023/09/26 07:29:01;;;;;;;6.97;4.35;;;;;;;14.09;68.53;100958.56;10422189;28;20056;-58
2023/09/26 07:34:03;;;;;;;9.05;4.10;;;;;;;14.28;68.68;100948.28;10425530;28;20041;-58
2023/09/26 07:39:05;;;;;;;5.82;3.55;;;;;;;14.48;68.08;100952.09;10428270;28;20060;-59
2023/09/26 07:44:06;;;;;;;5.20;4.25;;;;;;;14.72;68.21;100949.31;10425630;28;20473;-59
2023/09/26 07:49:08;;;;;;;6.18;3.85;;;;;;;14.93;67.86;100953.94;10420043;28;20055;-59
2023/09/26 07:54:10;;;;;;;7.38;3.28;;;;;;;15.15;67.69;100949.41;10416485;28;20790;-60
2023/09/26 07:59:11;;;;;;;5.15;4.05;;;;;;;15.37;67.71;100945.69;10416285;28;20446;-59
2023/09/26 08:04:12;;;;;;;3.90;3.33;;;;;;;15.55;67.25;100947.94;10420836;28;20402;-59
2023/09/26 08:09:15;;;;;;;6.18;2.85;;;;;;;15.73;67.25;100947.50;10419601;28;20415;-60
2023/09/26 08:14:16;;;;;;;4.97;2.97;;;;;;;15.95;67.02;100944.75;10418464;28;20469;-59
2023/09/26 08:19:18;;;;;;;3.28;2.90;;;;;;;16.09;66.72;100941.09;10432781;28;20046;-59
2023/09/26 08:24:20;;;;;;;4.57;2.53;;;;;;;16.33;66.46;100942.53;10434796;28;20046;-59
2023/09/26 08:29:21;;;;;;;4.57;2.60;;;;;;;16.55;66.05;100937.88;10424933;28;20060;-56
2023/09/26 08:34:23;;;;;;;2.80;2.42;;;;;;;16.74;65.71;100930.84;10422862;28;20064;-58
2023/09/26 08:39:24;;;;;;;3.60;2.42;;;;;;;16.96;65.23;100936.19;10432149;28;20099;-58
2023/09/26 08:44:26;;;;;;;3.85;2.25;;;;;;;17.13;65.03;100923.06;10416264;28;20056;-57
2023/09/26 08:49:27;;;;;;;2.88;2.05;;;;;;;17.33;64.63;100928.53;10427009;28;20049;-58
2023/09/26 08:54:29;;;;;;;5.47;2.08;;;;;;;17.53;63.78;100926.69;10420752;28;20099;-59
2023/09/26 08:59:31;;;;;;;3.00;1.60;;;;;;;17.70;63.26;100923.56;10424828;28;20044;-57
2023/09/26 09:04:33;;;;;;;4.00;2.17;;;;;;;17.95;62.73;100921.06;10425464;28;20658;-57
2023/09/26 09:09:34;;;;;;;3.67;2.20;;;;;;;18.12;62.23;100916.88;10425875;28;20389;-57
2023/09/26 09:14:36;;;;;;;2.67;1.70;;;;;;;18.28;61.83;100920.19;10426615;28;20048;-57
2023/09/26 09:19:48;;;;;;;3.78;2.05;;;;;;;18.36;61.56;100906.34;10427920;28;20132;-57
2023/09/26 09:24:54;;;;;;;3.20;1.95;;;;;;;18.60;61.06;100896.63;10421236;28;20057;-57
2023/09/26 09:30:12;;;;;;;3.77;1.43;;;;;;;18.79;60.72;100894.88;10419943;28;20049;-58
2023/09/26 09:35:14;;;;;;;3.65;2.47;;;;;;;19.03;60.53;100887.84;10426005;28;20111;-60
2023/09/26 09:40:17;;;;;;;3.97;2.08;;;;;;;19.27;59.44;100885.41;10421247;28;20064;-59
2023/09/26 09:45:19;;;;;;;2.33;1.67;;;;;;;19.42;59.31;100889.47;10424998;28;20053;-59
2023/09/26 09:50:21;;;;;;;3.10;1.70;;;;;;;19.64;58.87;100877.38;10420692;28;20640;-59
2023/09/26 09:55:33;;;;;;;1.98;1.70;;;;;;;19.70;58.54;100879.19;10423618;28;20053;-60
2023/09/26 10:00:40;;;;;;;2.83;1.20;;;;;;;19.92;58.41;100875.00;10422701;28;20133;-57
2023/09/26 10:05:43;;;;;;;1.60;1.40;;;;;;;20.15;57.47;100877.09;10424528;28;20049;-59
2023/09/26 10:10:44;;;;;;;2.85;1.15;;;;;;;20.37;57.51;100872.00;10422253;28;20069;-57
2023/09/26 10:16:18;;;;;;;2.42;1.00;;;;;;;20.60;56.91;100862.34;10426409;28;20061;-57
2023/09/26 10:21:21;;;;;;;2.95;1.80;;;;;;;21.07;55.77;100862.53;10425870;28;20060;-57
2023/09/26 10:26:23;;;;;;;3.08;1.20;;;;;;;21.66;54.55;100862.63;10418426;28;20392;-58
2023/09/26 10:31:28;;;;;;;2.13;1.15;;;;;;;22.20;53.63;100859.78;10419516;28;20056;-57
2023/09/26 10:36:30;;;;;;;2.25;1.42;;;;;;;22.55;53.41;100845.16;10425152;28;20063;-58
2023/09/26 10:41:32;;;;;;;2.90;1.40;;;;;;;22.71;52.74;100840.81;10417347;28;20530;-59
2023/09/26 10:46:54;;;;;;;2.72;1.30;;;;;;;22.93;52.23;100830.84;10401021;28;20444;-59
2023/09/26 10:51:55;;;;;;;1.17;1.00;;;;;;;23.20;51.56;100824.72;10418090;28;20092;-60
2023/09/26 10:56:58;;;;;;;2.30;1.23;;;;;;;23.36;51.18;100821.19;10423060;28;20049;-60
2023/09/26 11:02:01;;;;;;;2.25;1.10;;;;;;;23.38;50.71;100825.56;10417096;28;20053;-61
2023/09/26 11:07:05;;;;;;;3.03;1.25;;;;;;;23.56;50.44;100819.84;10418785;28;20478;-60
2023/09/26 11:12:08;;;;;;;2.78;1.13;;;;;;;23.82;49.79;100817.50;10423490;28;20138;-61
2023/09/26 11:17:09;;;;;;;2.63;1.02;;;;;;;24.18;48.55;100818.81;10421160;28;20049;-61
2023/09/26 11:22:11;;;;;;;3.55;1.05;;;;;;;24.70;47.54;100812.03;10421939;28;20060;-63
2023/09/26 11:27:13;;;;;;;2.00;1.00;;;;;;;25.16;46.41;100808.88;10415397;28;20053;-60
2023/09/26 11:32:16;;;;;;;3.55;0.90;;;;;;;25.01;46.54;100804.09;10416699;28;20075;-60
2023/09/26 11:37:18;;;;;;;2.42;1.10;;;;;;;25.05;46.38;100792.28;10419695;28;20139;-59
2023/09/26 11:42:19;;;;;;;2.45;1.00;;;;;;;25.29;45.29;100789.22;10420090;28;20084;-59
2023/09/26 11:47:22;;;;;;;3.47;1.13;;;;;;;25.47;45.05;100790.72;10417146;28;20053;-64
2023/09/26 11:52:23;;;;;;;2.15;1.10;;;;;;;25.68;44.56;100791.69;10419700;28;20547;-62
2023/09/26 11:57:25;;;;;;;2.95;0.95;;;;;;;26.06;43.97;100792.47;10419105;28;20048;-61
2023/09/26 12:02:27;;;;;;;2.58;1.75;;;;;;;26.70;43.14;100781.13;10424550;28;20072;-61
2023/09/26 12:07:28;;;;;;;2.85;1.15;;;;;;;27.48;41.57;100768.97;10418628;28;20069;-62
2023/09/26 12:12:30;;;;;;;4.68;1.25;;;;;;;27.56;41.66;100766.75;10418986;28;20641;-63
2023/09/26 12:17:32;;;;;;;1.67;1.08;;;;;;;27.78;41.39;100767.25;10427671;28;20512;-63
2023/09/26 12:22:33;;;;;;;3.53;1.10;;;;;;;27.48;41.00;100762.63;10428620;28;20488;-62
2023/09/26 12:27:35;;;;;;;2.03;1.00;;;;;;;27.48;40.39;100757.94;10427131;28;20132;-61
2023/09/26 12:32:36;;;;;;;1.00;0.77;;;;;;;27.24;40.98;100756.88;10427315;28;20048;-63
2023/09/26 12:37:39;;;;;;;2.08;1.20;;;;;;;27.35;40.86;100741.97;10430968;28;20132;-63
2023/09/26 12:42:43;;;;;;;2.42;1.20;;;;;;;27.67;40.84;100735.25;10429753;28;20067;-64
2023/09/26 12:47:44;;;;;;;3.42;1.20;;;;;;;27.87;40.53;100737.97;10427441;28;20780;-63
2023/09/26 12:52:47;;;;;;;4.28;0.85;;;;;;;28.12;39.94;100738.13;10429655;28;20036;-63
2023/09/26 12:57:48;;;;;;;0.98;0.77;;;;;;;28.00;39.44;100728.25;10426590;28;20122;-64
2023/09/26 13:02:50;;;;;;;2.63;0.98;;;;;;;28.02;39.42;100727.94;10428668;28;20045;-59
2023/09/26 13:07:51;;;;;;;1.40;0.90;;;;;;;27.99;39.60;100717.47;10429675;28;20051;-59
2023/09/26 13:12:53;;;;;;;3.00;1.20;;;;;;;28.54;38.92;100701.69;10425156;28;20072;-58
2023/09/26 13:17:54;;;;;;;1.60;0.90;;;;;;;28.70;38.25;100702.38;10425308;28;20136;-60
2023/09/26 13:22:56;;;;;;;2.03;0.80;;;;;;;29.01;37.89;100707.63;10426560;28;20040;-59
2023/09/26 13:27:57;;;;;;;1.17;0.80;;;;;;;29.11;38.42;100696.50;10419643;28;20041;-58
2023/09/26 13:32:59;;;;;;;3.55;0.68;;;;;;;29.23;37.29;100698.91;10425514;28;20116;-59
2023/09/26 13:38:01;;;;;;;1.45;0.80;;;;;;;29.33;37.61;100698.78;10425242;28;20072;-60
2023/09/26 13:43:05;;;;;;;1.48;1.17;;;;;;;29.34;37.47;100705.16;10425676;28;20410;-59
2023/09/26 13:48:07;;;;;;;2.00;0.70;;;;;;;29.81;37.06;100700.75;10418594;28;20508;-58
2023/09/26 13:53:08;;;;;;;2.47;0.65;;;;;;;30.09;35.88;100707.28;10422979;28;20053;-59
2023/09/26 13:58:10;;;;;;;2.30;0.60;;;;;;;31.12;35.00;100700.16;10420865;28;20059;-59
2023/09/26 14:03:11;;;;;;;4.28;0.90;;;;;;;33.11;32.29;100691.38;10423995;28;20049;-60
2023/09/26 14:08:13;;;;;;;1.77;1.00;;;;;;;34.96;29.68;100681.81;10419004;28;20052;-58
2023/09/26 14:13:14;;;;;;;1.50;0.70;;;;;;;36.14;27.67;100688.66;10421631;28;20072;-60
2023/09/26 14:18:17;;;;;;;2.40;0.65;;;;;;;35.91;27.73;100688.16;10420032;28;20044;-61
2023/09/26 14:23:22;;;;;;;2.50;0.80;;;;;;;36.02;27.47;100680.22;10422197;28;20045;-60
2023/09/26 14:28:24;;;;;;;1.90;1.00;;;;;;;35.91;27.64;100684.56;10431839;28;20049;-62
2023/09/26 14:33:26;;;;;;;2.60;0.82;;;;;;;34.65;28.97;100679.22;10424918;28;20049;-59
2023/09/26 14:38:28;;;;;;;2.63;1.10;;;;;;;34.25;29.73;100675.81;10405796;28;20478;-59
2023/09/26 14:43:29;;;;;;;1.35;0.80;;;;;;;33.98;29.58;100672.97;10423271;28;20050;-59
2023/09/26 14:48:31;;;;;;;4.72;0.85;;;;;;;33.23;30.03;100680.44;10423663;28;20049;-60
2023/09/26 14:53:32;;;;;;;2.10;0.60;;;;;;;32.87;30.08;100675.81;10427445;28;20053;-60
2023/09/26 14:58:34;;;;;;;1.02;0.63;;;;;;;32.85;29.52;100680.06;10424047;28;20499;-59
2023/09/26 15:03:36;;;;;;;2.08;0.65;;;;;;;32.14;30.17;100686.19;10406571;28;20628;-60
2023/09/26 15:08:39;;;;;;;2.28;0.60;;;;;;;31.38;31.23;100681.91;10415686;28;20136;-60
2023/09/26 15:13:41;;;;;;;0.60;0.50;;;;;;;30.93;31.49;100684.41;10418609;28;20567;-59
2023/09/26 15:18:42;;;;;;;1.77;0.68;;;;;;;30.80;31.83;100677.63;10420957;28;20714;-59
2023/09/26 15:23:43;;;;;;;1.20;0.50;;;;;;;30.48;32.11;100680.41;10422496;28;20068;-59
2023/09/26 15:28:45;;;;;;;0.88;0.60;;;;;;;29.85;32.82;100682.41;10421832;28;20060;-60
2023/09/26 15:33:47;;;;;;;1.33;0.50;;;;;;;29.61;33.53;100669.38;10424319;28;20056;-60
2023/09/26 15:38:48;;;;;;;1.98;0.50;;;;;;;29.32;33.67;100671.38;10423977;28;20127;-60
2023/09/26 15:43:51;;;;;;;0.80;0.55;;;;;;;28.89;34.45;100674.84;10416840;28;20053;-59
2023/09/26 15:48:53;;;;;;;1.05;0.50;;;;;;;28.56;34.69;100674.56;10422855;28;20396;-60
2023/09/26 15:53:55;;;;;;;1.05;0.60;;;;;;;28.47;35.01;100667.94;10429582;28;20496;-59
2023/09/26 15:58:57;;;;;;;2.95;0.70;;;;;;;28.34;35.49;100671.34;10432415;28;20064;-60
2023/09/26 16:03:59;;;;;;;1.48;0.60;;;;;;;27.99;35.96;100668.53;10425845;28;20063;-60
2023/09/26 16:09:02;;;;;;;3.97;0.60;;;;;;;27.69;36.58;100662.03;10424626;28;20134;-61
2023/09/26 16:14:06;;;;;;;2.80;0.60;;;;;;;27.38;36.81;100669.59;10422511;28;20051;-60
2023/09/26 16:19:07;;;;;;;2.30;0.70;;;;;;;27.12;37.64;100670.75;10429819;28;20044;-59
2023/09/26 16:24:09;;;;;;;2.25;0.60;;;;;;;27.00;37.24;100674.63;10426526;28;20055;-59
2023/09/26 16:29:10;;;;;;;1.13;0.50;;;;;;;26.58;38.27;100677.63;10428282;28;20060;-58
2023/09/26 16:34:12;;;;;;;2.05;0.65;;;;;;;26.31;38.97;100678.72;10430256;28;20045;-62
2023/09/26 16:39:13;;;;;;;2.13;0.68;;;;;;;26.04;39.24;100679.75;10429738;28;20504;-62
2023/09/26 16:44:15;;;;;;;4.43;0.80;;;;;;;25.85;40.06;100679.41;10431089;28;20042;-60
2023/09/26 16:49:16;;;;;;;2.33;0.55;;;;;;;25.74;40.46;100680.47;10428613;28;20069;-63
2023/09/26 16:54:18;;;;;;;1.98;0.65;;;;;;;25.56;41.28;100678.19;10425512;28;20061;-66
2023/09/26 16:59:19;;;;;;;3.85;0.93;;;;;;;25.27;41.36;100690.38;10431423;28;20053;-65
2023/09/26 17:04:21;;;;;;;1.50;0.90;;;;;;;24.94;42.52;100688.75;10422446;28;20427;-65
2023/09/26 17:09:23;;;;;;;2.45;0.88;;;;;;;24.62;43.43;100691.53;10432138;28;20045;-65
2023/09/26 17:14:27;;;;;;;2.10;1.00;;;;;;;24.30;44.53;100698.59;10427763;28;20052;-66
2023/09/26 17:19:28;;;;;;;2.25;1.13;;;;;;;23.99;45.48;100707.59;10409146;28;20049;-64
2023/09/26 17:24:31;;;;;;;3.53;1.45;;;;;;;23.68;46.00;100707.22;10423377;28;20045;-65
2023/09/26 17:29:33;;;;;;;3.17;1.25;;;;;;;23.38;46.88;100710.34;10422468;28;20606;-66
2023/09/26 17:34:34;;;;;;;2.97;2.20;;;;;;;23.09;47.72;100711.31;10425864;28;20412;-65
2023/09/26 17:39:36;;;;;;;5.35;1.05;;;;;;;22.75;48.54;100724.97;10421637;28;20049;-65
2023/09/26 17:44:38;;;;;;;1.65;1.27;;;;;;;;;;10426372;28;20049;-61
2023/09/26 17:49:40;;;;;;;4.03;1.50;;;;;;;22.27;49.65;100723.53;10430988;28;20049;-58
2023/09/26 17:54:41;;;;;;;4.47;1.67;;;;;;;22.07;50.40;100734.91;10426136;28;20057;-59
2023/09/26 17:59:43;;;;;;;6.60;2.55;;;;;;;21.81;51.08;100730.81;10429265;28;20416;-58
2023/09/26 18:04:44;;;;;;;3.85;2.10;;;;;;;21.58;51.58;100731.66;10430178;28;20053;-57
2023/09/26 18:09:46;;;;;;;3.58;1.75;;;;;;;21.38;52.32;100742.94;10428407;28;20060;-57
2023/09/26 18:14:47;;;;;;;4.85;1.95;;;;;;;21.17;52.72;100747.13;10423902;28;20060;-58
2023/09/26 18:19:49;;;;;;;4.85;2.15;;;;;;;20.96;53.28;100748.50;10429791;28;20050;-57
2023/09/26 18:24:50;;;;;;;3.63;2.08;;;;;;;20.70;54.08;100758.78;10426985;28;20127;-57
2023/09/26 18:29:53;;;;;;;6.95;2.10;;;;;;;20.52;54.25;100756.94;10420821;28;20052;-58
2023/09/26 18:34:54;;;;;;;4.28;2.00;;;;;;;20.37;55.27;100756.50;10419997;28;20068;-57
2023/09/26 18:39:56;;;;;;;7.20;2.40;;;;;;;20.24;55.47;100754.78;10423288;28;20045;-58
2023/09/26 18:44:57;;;;;;;4.70;2.20;;;;;;;20.10;55.52;100762.31;10422372;28;20044;-59
2023/09/26 18:49:59;;;;;;;3.47;2.60;;;;;;;19.98;55.90;100764.97;10403020;28;20144;-58
2023/09/26 18:55:00;;;;;;;2.65;2.03;;;;;;;19.76;56.58;100771.94;10425743;28;20081;-59
2023/09/26 19:00:04;;;;;;;5.13;2.95;;;;;;;19.57;57.11;100779.25;10422262;28;20053;-59
2023/09/26 19:05:08;;;;;;;4.20;2.50;;;;;;;19.46;57.61;100769.91;10424758;28;20411;-59
2023/09/26 19:10:11;;;;;;;3.90;2.33;;;;;;;19.37;57.71;100766.63;10421118;28;20566;-60
2023/09/26 19:15:12;;;;;;;6.07;2.20;;;;;;;19.28;57.67;100767.16;10424887;28;20046;-58
2023/09/26 19:20:14;;;;;;;3.55;2.40;;;;;;;19.14;58.31;100771.88;10420098;28;20045;-59
2023/09/26 19:25:15;;;;;;;4.93;2.53;;;;;;;18.98;58.55;100782.25;10425878;28;20072;-59
2023/09/26 19:30:17;;;;;;;3.92;2.80;;;;;;;18.89;58.76;100780.03;10426100;28;20052;-59
2023/09/26 19:35:18;;;;;;;5.25;2.00;;;;;;;18.78;58.98;100784.25;10435350;28;20705;-59
2023/09/26 19:40:20;;;;;;;2.95;2.10;;;;;;;18.66;59.24;100784.13;10431470;28;20053;-59
2023/09/26 19:45:21;;;;;;;5.55;2.75;;;;;;;18.51;59.54;100778.97;10431749;28;20052;-59
2023/09/26 19:50:23;;;;;;;3.88;2.13;;;;;;;18.40;59.80;100772.34;10430097;28;20112;-59
2023/09/26 19:55:24;;;;;;;4.40;2.08;;;;;;;18.30;60.08;100773.84;10431696;28;20064;-60
2023/09/26 20:00:26;;;;;;;3.90;2.30;;;;;;;18.17;60.23;100769.31;10430656;28;20073;-59
2023/09/26 20:05:27;;;;;;;3.15;2.60;;;;;;;17.94;60.85;100770.63;10431320;28;20048;-60
2023/09/26 20:10:30;;;;;;;4.88;2.35;;;;;;;17.75;61.41;100775.06;10427604;28;20052;-60
2023/09/26 20:15:32;;;;;;;6.53;2.30;;;;;;;17.63;61.48;100780.31;10427279;28;20047;-59
2023/09/26 20:20:34;;;;;;;3.97;2.65;;;;;;;17.44;61.87;100792.88;10426491;28;20550;-59
2023/09/26 20:25:35;;;;;;;5.05;2.67;;;;;;;17.39;62.18;100797.25;10422154;28;20060;-60
2023/09/26 20:30:36;;;;;;;6.47;3.00;;;;;;;17.39;62.15;100789.13;10423618;28;20673;-59
2023/09/26 20:35:38;;;;;;;3.20;2.72;;;;;;;17.35;62.15;100791.41;10425211;28;20136;-59
2023/09/26 20:40:40;;;;;;;4.90;2.90;;;;;;;17.23;62.56;100796.63;10422724;28;20577;-59
2023/09/26 20:45:41;;;;;;;5.93;2.85;;;;;;;17.17;62.52;100800.19;10429654;28;20492;-60
2023/09/26 20:50:43;;;;;;;6.05;2.58;;;;;;;17.13;62.64;100801.66;10432082;28;20144;-60
2023/09/26 20:55:44;;;;;;;6.93;2.75;;;;;;;17.07;62.54;100796.22;10375453;28;20468;-59
2023/09/26 21:00:48;;;;;;;3.20;2.78;;;;;;;17.03;62.77;100812.94;10390425;28;20137;-59
2023/09/26 21:05:51;;;;;;;3.97;2.50;;;;;;;16.98;62.84;100806.44;10389812;28;20039;-59
2023/09/26 21:10:59;;;;;;;6.55;2.85;;;;;;;16.93;62.86;100792.66;10391042;28;20543;-60
2023/09/26 21:16:12;;;;;;;5.57;2.67;;;;;;;16.85;62.91;100789.09;10393693;28;20120;-60
2023/09/26 21:21:21;;;;;;;4.25;2.22;;;;;;;16.79;63.11;100784.47;10387354;28;20080;-60
2023/09/26 21:26:23;;;;;;;3.60;2.60;;;;;;;16.70;63.54;100784.84;10406602;23;20065;-60
2023/09/26 21:31:25;;;;;;;4.75;2.55;;;;;;;16.57;63.62;100791.09;10389388;28;20057;-60
2023/09/26 21:36:26;;;;;;;5.57;2.90;;;;;;;16.54;63.90;100788.78;10386358;28;20052;-60
2023/09/26 21:41:27;;;;;;;3.38;2.25;;;;;;;16.50;63.98;100788.34;10389379;28;20049;-60
2023/09/26 21:46:30;;;;;;;4.57;2.33;;;;;;;16.38;63.90;100788.09;10386249;28;20058;-60
2023/09/26 21:51:31;;;;;;;5.78;2.50;;;;;;;16.38;64.00;100798.94;10383407;28;20057;-63
2023/09/26 21:56:33;;;;;;;6.13;2.95;;;;;;;16.34;64.06;100800.41;10386467;28;20073;-63
2023/09/26 22:01:37;;;;;;;5.32;3.10;;;;;;;16.30;64.33;100792.88;10384794;28;20058;-62
2023/09/26 22:06:38;;;;;;;2.92;2.20;;;;;;;16.30;64.00;100777.44;10390464;28;20099;-63
2023/09/26 22:11:39;;;;;;;3.30;2.40;;;;;;;16.30;64.27;100766.59;10366901;28;20060;-63
2023/09/26 22:16:41;;;;;;;5.32;2.75;;;;;;;16.22;64.42;100781.16;10382673;28;20060;-61
2023/09/26 22:21:42;;;;;;;6.68;2.72;;;;;;;16.09;64.86;100786.50;10383926;28;20072;-62
2023/09/26 22:26:44;;;;;;;4.18;2.70;;;;;;;16.11;64.66;100773.59;10379113;28;20046;-62
2023/09/26 22:31:45;;;;;;;3.03;2.55;;;;;;;16.09;64.78;100772.97;10382924;28;20072;-63
2023/09/26 22:36:47;;;;;;;4.15;3.00;;;;;;;16.07;64.71;100780.47;10386543;28;20042;-62
2023/09/26 22:41:48;;;;;;;4.85;2.28;;;;;;;16.10;64.88;100773.81;10385095;28;20049;-61
2023/09/26 22:46:51;;;;;;;4.72;3.03;;;;;;;16.08;65.12;100760.44;10380892;28;20049;-62
2023/09/26 22:51:52;;;;;;;3.63;3.05;;;;;;;16.17;65.07;100755.69;10375599;28;20101;-62
2023/09/26 22:56:54;;;;;;;4.90;2.80;;;;;;;16.25;64.93;100758.19;10381446;28;20045;-63
2023/09/26 23:01:56;;;;;;;4.80;2.95;;;;;;;16.28;65.02;100746.13;10378992;28;20042;-62
2023/09/26 23:06:57;;;;;;;5.30;4.20;;;;;;;16.30;64.73;100749.47;10381232;28;20570;-61